createdAt,value
2018-02-22T00:00:31.625Z,44.80
2018-02-22T00:02:59.135Z,38.47
2018-02-22T00:05:26.661Z,44.87
2018-02-22T00:07:54.161Z,41.93
2018-02-22T00:10:21.673Z,46.83
2018-02-22T00:12:49.169Z,51.13
2018-02-22T00:15:16.676Z,40.53
2018-02-22T00:19:06.038Z,40.67
2018-02-22T00:21:34.309Z,40.13
2018-02-22T00:24:02.576Z,43.80
2018-02-22T00:26:30.090Z,43.27
2018-02-22T00:28:57.591Z,40.10
2018-02-22T00:31:25.109Z,38.57
2018-02-22T00:33:52.627Z,39.00
2018-02-22T00:36:20.162Z,40.93
2018-02-22T00:38:47.660Z,38.53
2018-02-22T00:41:15.190Z,42.90
2018-02-22T00:43:42.682Z,44.90
2018-02-22T00:46:10.242Z,44.77
2018-02-22T00:48:37.759Z,50.77
2018-02-22T00:51:05.279Z,44.70
2018-02-22T00:53:32.782Z,38.93
2018-02-22T00:56:01.068Z,38.47
2018-02-22T00:58:28.578Z,40.50
2018-02-22T01:00:57.090Z,42.03
2018-02-22T01:03:24.618Z,44.83
2018-02-22T01:05:53.134Z,45.43
2018-02-22T01:08:20.752Z,38.43
2018-02-22T01:10:48.261Z,42.60
2018-02-22T01:13:15.771Z,38.07
2018-02-22T01:15:43.294Z,39.47
2018-02-22T01:18:11.565Z,45.60
2018-02-22T01:20:39.832Z,36.57
2018-02-22T01:23:07.341Z,37.87
2018-02-22T01:25:34.848Z,38.20
2018-02-22T01:28:03.154Z,34.80
2018-02-22T01:30:31.426Z,41.03
2018-02-22T01:32:59.740Z,38.07
2018-02-22T01:35:28.253Z,35.77
2018-02-22T01:37:55.771Z,39.60
2018-02-22T01:40:23.278Z,32.70
2018-02-22T01:42:50.795Z,41.87
2018-02-22T01:45:18.298Z,36.43
2018-02-22T01:47:46.574Z,41.70
2018-02-22T01:50:14.090Z,39.30
2018-02-22T01:52:41.585Z,36.40
2018-02-22T01:55:09.128Z,34.70
2018-02-22T01:57:36.638Z,43.30
2018-02-22T02:00:04.937Z,36.40
2018-02-22T02:02:32.488Z,34.03
2018-02-22T02:05:00.023Z,38.30
2018-02-22T02:07:28.402Z,37.93
2018-02-22T02:09:56.706Z,35.17
2018-02-22T02:12:24.212Z,37.43
2018-02-22T02:14:52.498Z,35.03
2018-02-22T02:17:21.507Z,36.50
2018-02-22T02:19:49.815Z,41.23
2018-02-22T02:22:17.326Z,37.40
2018-02-22T02:24:45.624Z,44.63
2018-02-22T02:27:13.896Z,43.83
2018-02-22T02:29:42.179Z,41.10
2018-02-22T02:32:10.452Z,32.93
2018-02-22T02:34:38.731Z,39.10
2018-02-22T02:37:06.997Z,38.90
2018-02-22T02:39:35.274Z,39.87
2018-02-22T02:42:02.777Z,35.20
2018-02-22T02:44:30.296Z,38.53
2018-02-22T02:46:58.562Z,36.50
2018-02-22T02:49:26.073Z,34.90
2018-02-22T02:51:53.595Z,32.33
2018-02-22T02:54:21.874Z,40.40
2018-02-22T02:56:50.250Z,35.77
2018-02-22T02:59:18.528Z,37.93
2018-02-22T03:01:46.803Z,34.83
2018-02-22T03:04:15.083Z,34.77
2018-02-22T03:06:43.367Z,40.13
2018-02-22T03:09:11.635Z,33.90
2018-02-22T03:11:39.929Z,41.77
2018-02-22T03:14:07.451Z,41.73
2018-02-22T03:16:35.047Z,40.03
2018-02-22T03:19:02.561Z,39.90
2018-02-22T03:21:30.095Z,37.30
2018-02-22T03:23:57.604Z,36.67
2018-02-22T03:26:25.897Z,40.20
2018-02-22T03:28:54.172Z,36.53
2018-02-22T03:31:22.455Z,30.10
2018-02-22T03:33:49.983Z,29.87
2018-02-22T03:36:19.012Z,32.00
2018-02-22T03:38:46.535Z,32.70
2018-02-22T03:41:14.058Z,34.33
2018-02-22T03:43:41.566Z,36.20
2018-02-22T03:46:09.862Z,31.97
2018-02-22T03:48:37.386Z,35.80
2018-02-22T03:51:04.894Z,32.80
2018-02-22T03:53:32.410Z,39.03
2018-02-22T03:55:59.913Z,30.50
2018-02-22T03:58:28.466Z,32.93
2018-02-22T04:00:56.735Z,30.77
2018-02-22T04:03:25.022Z,30.60
2018-02-22T04:05:53.306Z,34.27
2018-02-22T04:08:21.594Z,29.90
2018-02-22T04:10:49.123Z,29.80
2018-02-22T04:13:18.428Z,31.10
2018-02-22T04:15:46.718Z,30.93
2018-02-22T04:18:15.043Z,30.53
2018-02-22T04:20:42.579Z,28.10
2018-02-22T04:23:10.106Z,36.23
2018-02-22T04:25:38.390Z,33.77
2018-02-22T04:28:05.928Z,30.10
2018-02-22T04:30:33.446Z,28.03
2018-02-22T04:33:00.967Z,29.07
2018-02-22T04:35:29.245Z,31.70
2018-02-22T04:37:57.546Z,29.23
2018-02-22T04:40:25.072Z,29.33
2018-02-22T04:42:53.361Z,37.20
2018-02-22T04:45:21.631Z,28.70
2018-02-22T04:47:49.914Z,28.87
2018-02-22T04:50:18.206Z,35.20
2018-02-22T04:52:45.743Z,28.67
2018-02-22T04:55:14.023Z,30.10
2018-02-22T04:57:42.299Z,33.10
2018-02-22T05:00:10.588Z,31.33
2018-02-22T05:02:38.110Z,29.40
2018-02-22T05:05:05.627Z,32.70
2018-02-22T05:07:33.140Z,27.83
2018-02-22T05:10:01.432Z,33.13
2018-02-22T05:12:28.966Z,24.60
2018-02-22T05:14:56.502Z,27.90
2018-02-22T05:17:24.005Z,33.57
2018-02-22T05:19:52.290Z,27.13
2018-02-22T05:22:19.829Z,30.17
2018-02-22T05:24:47.351Z,25.87
2018-02-22T05:27:14.856Z,27.70
2018-02-22T05:29:43.140Z,28.83
2018-02-22T05:32:11.449Z,27.43
2018-02-22T05:34:39.118Z,33.40
2018-02-22T05:37:06.672Z,24.50
2018-02-22T05:39:34.659Z,27.43
2018-02-22T05:42:02.182Z,22.73
2018-02-22T05:44:29.721Z,27.50
2018-02-22T05:46:57.992Z,30.23
2018-02-22T05:49:27.294Z,33.30
2018-02-22T05:51:54.814Z,29.00
2018-02-22T05:54:22.331Z,32.20
2018-02-22T05:56:50.629Z,34.80
2018-02-22T05:59:18.143Z,24.30
2018-02-22T06:01:46.444Z,24.13
2018-02-22T06:04:14.722Z,26.53
2018-02-22T06:06:42.286Z,27.53
2018-02-22T06:09:09.833Z,25.70
2018-02-22T06:11:38.146Z,28.27
2018-02-22T06:14:05.704Z,26.93
2018-02-22T06:16:34.246Z,27.73
2018-02-22T06:19:02.689Z,27.77
2018-02-22T06:21:30.295Z,30.17
2018-02-22T06:23:57.805Z,24.00
2018-02-22T06:26:25.351Z,31.00
2018-02-22T06:28:52.855Z,30.37
2018-02-22T06:31:20.363Z,26.00
2018-02-22T06:33:47.882Z,23.40
2018-02-22T06:36:16.158Z,22.43
2018-02-22T06:38:44.450Z,27.60
2018-02-22T06:41:12.754Z,27.63
2018-02-22T06:43:40.279Z,28.93
2018-02-22T06:46:08.550Z,24.00
2018-02-22T06:48:36.838Z,23.70
2018-02-22T06:51:05.105Z,24.13
2018-02-22T06:53:33.390Z,29.90
2018-02-22T06:56:01.658Z,26.57
2018-02-22T06:58:29.938Z,24.27
2018-02-22T07:00:58.211Z,22.23
2018-02-22T07:03:26.498Z,28.97
2018-02-22T07:05:55.712Z,27.47
2018-02-22T07:08:23.234Z,23.73
2018-02-22T07:10:50.730Z,24.70
2018-02-22T07:13:18.258Z,24.63
2018-02-22T07:15:46.531Z,26.73
2018-02-22T07:18:14.810Z,21.03
2018-02-22T07:20:43.095Z,27.23
2018-02-22T07:23:16.888Z,28.07
2018-02-22T07:25:40.032Z,21.00
2018-02-22T07:28:07.534Z,25.47
2018-02-22T07:30:35.061Z,23.00
2018-02-22T07:33:02.656Z,20.47
2018-02-22T07:35:30.171Z,22.33
2018-02-22T07:37:57.681Z,20.37
2018-02-22T07:40:25.195Z,25.50
2018-02-22T07:42:52.701Z,20.57
2018-02-22T07:45:20.213Z,17.17
2018-02-22T07:47:47.810Z,22.40
2018-02-22T07:50:15.321Z,22.63
2018-02-22T07:52:42.817Z,22.50
2018-02-22T07:55:11.116Z,25.00
2018-02-22T07:57:38.614Z,30.20
2018-02-22T08:00:06.123Z,21.93
2018-02-22T08:02:33.640Z,24.40
2018-02-22T08:05:01.132Z,18.73
2018-02-22T08:07:29.402Z,21.30
2018-02-22T08:09:57.667Z,36.10
2018-02-22T08:12:25.180Z,21.07
2018-02-22T08:14:52.730Z,25.70
2018-02-22T08:17:20.239Z,20.60
2018-02-22T08:19:47.738Z,21.07
2018-02-22T12:00:17.830Z,10.43
2018-02-22T12:02:46.127Z,9.40
2018-02-22T12:05:13.660Z,9.57
2018-02-22T12:07:41.159Z,8.80
2018-02-22T12:10:08.691Z,8.87
2018-02-22T12:12:36.947Z,11.97
2018-02-22T12:15:04.463Z,13.73
2018-02-22T13:25:45.495Z,6.60
2018-02-22T13:28:13.000Z,8.73
2018-02-22T13:30:40.494Z,8.07
2018-02-22T13:33:20.776Z,7.93
2018-02-22T13:35:48.265Z,7.00
2018-02-22T13:38:27.570Z,6.80
2018-02-22T13:40:55.058Z,6.83
2018-02-22T13:43:22.565Z,12.83
2018-02-22T13:45:50.825Z,7.30
2018-02-22T13:48:19.096Z,10.13
2018-02-22T13:50:58.482Z,8.23
2018-02-22T13:53:25.999Z,7.97
2018-02-22T13:55:54.286Z,9.23
2018-02-22T13:58:22.550Z,7.90
2018-02-22T14:01:02.647Z,8.57
2018-02-22T14:03:30.154Z,7.90
2018-02-22T14:05:57.646Z,8.83
2018-02-22T14:08:36.762Z,8.87
2018-02-22T14:11:05.020Z,8.20
2018-02-22T14:13:32.624Z,8.70
2018-02-22T14:16:00.123Z,9.33
2018-02-22T14:18:27.632Z,9.37
2018-02-22T14:20:55.189Z,11.60
2018-02-22T14:23:22.707Z,9.10
2018-02-22T14:25:50.210Z,9.80
2018-02-22T14:28:17.774Z,12.13
2018-02-22T14:30:46.020Z,10.03
2018-02-22T14:33:14.326Z,10.03
2018-02-22T14:35:41.915Z,9.47
2018-02-22T14:38:09.563Z,9.47
2018-02-22T14:40:37.088Z,9.63
2018-02-22T14:43:05.373Z,9.20
2018-02-22T14:45:33.003Z,8.33
2018-02-22T14:48:00.469Z,10.97
2018-02-22T14:50:27.994Z,10.40
2018-02-22T14:52:55.538Z,27.27
2018-02-22T14:55:23.131Z,10.53
2018-02-22T14:57:50.753Z,8.63
2018-02-22T15:00:18.279Z,9.17
2018-02-22T15:02:45.793Z,9.30
2018-02-22T15:05:13.310Z,12.77
2018-02-22T15:07:40.898Z,9.13
2018-02-22T15:10:08.682Z,12.73
2018-02-22T15:12:36.254Z,10.87
2018-02-22T15:15:04.574Z,9.77
2018-02-22T15:17:32.974Z,33.27
2018-02-22T15:22:36.518Z,14.20
2018-02-22T15:25:04.067Z,10.90
2018-02-22T15:27:33.686Z,11.60
2018-02-22T15:30:01.202Z,10.00
2018-02-22T15:32:29.834Z,14.20
2018-02-22T15:34:57.545Z,9.87
2018-02-22T15:37:25.886Z,13.33
2018-02-22T15:39:53.751Z,10.37
2018-02-22T15:42:21.332Z,11.30
2018-02-22T15:44:48.986Z,9.73
2018-02-22T15:47:16.554Z,13.47
2018-02-22T15:49:44.930Z,9.97
2018-02-22T15:52:12.627Z,11.57
2018-02-22T15:54:40.926Z,16.23
2018-02-22T15:57:08.442Z,11.00
2018-02-22T15:59:36.700Z,8.43
2018-02-22T16:02:05.281Z,9.97
2018-02-22T16:04:32.770Z,12.10
2018-02-22T16:07:01.056Z,12.03
2018-02-22T16:09:29.458Z,8.60
2018-02-22T16:11:56.977Z,8.47
2018-02-22T16:14:25.240Z,10.13
2018-02-22T16:16:52.734Z,15.67
2018-02-22T16:19:21.081Z,10.93
2018-02-22T16:21:49.930Z,12.37
2018-02-22T16:24:17.476Z,11.10
2018-02-22T16:26:44.976Z,10.37
2018-02-22T16:29:12.493Z,8.47
2018-02-22T16:31:40.006Z,11.70
2018-02-22T16:34:07.616Z,8.30
2018-02-22T16:36:35.114Z,9.93
2018-02-22T16:39:02.627Z,8.33
2018-02-22T16:41:30.124Z,10.80
2018-02-22T16:43:57.636Z,8.40
2018-02-22T16:46:25.221Z,8.43
2018-02-22T16:48:52.809Z,11.83
2018-02-22T16:51:20.432Z,7.60
2018-02-22T16:53:47.966Z,9.67
2018-02-22T16:56:16.264Z,8.37
2018-02-22T16:58:43.773Z,9.37
2018-02-22T17:01:11.285Z,9.03
2018-02-22T17:03:38.781Z,8.73
2018-02-22T17:06:07.810Z,8.67
2018-02-22T17:08:36.094Z,7.53
2018-02-22T17:11:03.641Z,12.70
2018-02-22T17:13:31.927Z,8.27
2018-02-22T17:16:00.235Z,11.77
2018-02-22T17:18:27.754Z,10.50
2018-02-22T17:20:56.046Z,9.00
2018-02-22T17:23:24.320Z,12.50
2018-02-22T17:25:57.654Z,12.60
2018-02-22T17:28:30.686Z,9.93
2018-02-22T17:31:04.575Z,9.93
2018-02-22T17:33:32.058Z,9.57
2018-02-22T17:36:06.196Z,12.33
2018-02-22T17:38:48.690Z,12.50
2018-02-22T17:41:16.974Z,10.77
2018-02-22T17:43:45.231Z,8.20
2018-02-22T17:46:12.770Z,8.27
2018-02-22T17:48:41.066Z,12.90
2018-02-22T17:51:09.504Z,9.57
2018-02-22T17:53:37.565Z,11.10
2018-02-22T17:56:05.107Z,12.63
2018-02-22T17:58:32.605Z,8.80
2018-02-22T18:01:00.277Z,9.70
2018-02-22T18:03:27.871Z,8.47
2018-02-22T18:05:56.150Z,11.57
2018-02-22T18:08:25.596Z,9.27
2018-02-22T18:10:53.117Z,11.73
2018-02-22T18:13:21.534Z,9.83
2018-02-22T18:15:49.026Z,12.97
2018-02-22T18:18:17.330Z,9.17
2018-02-22T18:20:44.919Z,11.40
2018-02-22T18:23:12.615Z,11.63
2018-02-22T18:25:40.151Z,10.43
2018-02-22T18:28:07.658Z,10.33
2018-02-22T18:30:35.171Z,11.20
2018-02-22T18:33:02.682Z,8.37
2018-02-22T18:35:31.008Z,10.00
2018-02-22T18:37:59.547Z,11.60
2018-02-22T18:43:41.788Z,13.33
2018-02-22T18:46:09.319Z,10.80
2018-02-22T18:48:36.959Z,14.67
2018-02-22T18:51:04.535Z,13.03
2018-02-22T18:53:32.057Z,20.20
2018-02-22T18:55:59.699Z,15.50
2018-02-22T18:58:27.230Z,18.50
2018-02-22T19:00:55.669Z,22.53
2018-02-22T19:03:23.250Z,19.03
2018-02-22T19:05:50.769Z,21.23
2018-02-22T19:08:18.458Z,13.40
2018-02-22T19:10:46.143Z,11.10
2018-02-22T19:13:13.788Z,9.73
2018-02-22T19:15:41.303Z,13.03
2018-02-22T19:18:08.880Z,14.90
2018-02-22T19:20:37.338Z,19.47
2018-02-22T19:23:04.903Z,17.13
2018-02-22T19:25:32.632Z,20.63
2018-02-22T19:28:00.957Z,22.73
2018-02-22T19:30:28.511Z,21.67
2018-02-22T19:32:56.014Z,28.73
2018-02-22T19:35:23.518Z,24.80
2018-02-22T19:37:51.035Z,23.33
2018-02-22T19:40:18.563Z,24.27
2018-02-22T19:42:46.071Z,24.70
2018-02-22T19:45:14.365Z,26.37
2018-02-22T19:47:41.948Z,27.00
2018-02-22T19:50:09.510Z,27.20
2018-02-22T19:52:37.071Z,26.00
2018-02-22T19:55:04.713Z,25.93
2018-02-22T19:57:32.246Z,28.43
2018-02-22T19:59:59.806Z,25.90
2018-02-22T20:02:28.132Z,24.80
2018-02-22T20:04:55.700Z,26.67
2018-02-22T20:07:23.259Z,26.87
2018-02-22T20:09:51.630Z,26.17
2018-02-22T20:12:19.223Z,29.67
2018-02-22T20:14:46.732Z,25.63
2018-02-22T20:17:14.306Z,25.50
2018-02-22T20:19:41.819Z,24.70
2018-02-22T20:22:10.106Z,26.60
2018-02-22T20:24:38.534Z,24.13
2018-02-22T20:27:06.188Z,29.00
2018-02-22T20:29:33.814Z,31.13
2018-02-22T20:32:02.143Z,25.67
2018-02-22T20:34:29.734Z,26.63
2018-02-22T20:36:57.255Z,26.37
2018-02-22T20:39:24.806Z,25.13
2018-02-22T20:41:52.326Z,30.37
2018-02-22T20:44:21.413Z,26.10
2018-02-22T20:46:49.027Z,27.37
2018-02-22T20:49:16.621Z,23.80
2018-02-22T20:51:59.110Z,29.40
2018-02-22T20:54:26.647Z,23.27
2018-02-22T20:56:54.176Z,22.37
2018-02-22T20:59:22.516Z,28.43
2018-02-22T21:01:50.842Z,30.77
2018-02-22T21:04:18.374Z,28.17
2018-02-22T21:06:45.883Z,32.60
2018-02-22T21:09:13.507Z,23.37
2018-02-22T21:11:41.978Z,28.07
2018-02-22T21:14:10.330Z,23.97
2018-02-22T21:16:37.872Z,25.10
2018-02-22T21:19:05.519Z,26.57
2018-02-22T21:21:33.058Z,25.60
2018-02-22T21:24:01.359Z,24.67
2018-02-22T21:26:28.902Z,25.00
2018-02-22T21:28:56.514Z,26.67
2018-02-22T21:31:24.055Z,24.30
2018-02-22T21:33:51.748Z,25.23
2018-02-22T21:36:20.056Z,25.70
2018-02-22T21:38:48.471Z,31.50
2018-02-22T21:41:15.983Z,23.73
2018-02-22T21:43:44.317Z,23.77
2018-02-22T21:46:11.829Z,22.20
2018-02-22T21:48:40.107Z,24.37
2018-02-22T21:51:08.417Z,21.63
2018-02-22T21:53:36.057Z,21.90
2018-02-22T21:56:04.374Z,23.23
2018-02-22T21:58:31.887Z,21.83
2018-02-22T22:00:59.442Z,19.60
2018-02-22T22:03:27.710Z,22.80
2018-02-22T22:05:56.010Z,22.63
2018-02-22T22:08:23.540Z,22.53
2018-02-22T22:10:51.075Z,18.83
2018-02-22T22:13:18.696Z,21.03
2018-02-22T22:15:46.266Z,22.40
2018-02-22T22:18:13.825Z,22.33
2018-02-22T22:20:41.354Z,21.57
2018-02-22T22:23:09.610Z,17.80
2018-02-22T22:25:37.327Z,18.08
2018-02-22T22:28:04.823Z,18.97
2018-02-22T22:30:32.327Z,21.03
2018-02-22T22:32:59.889Z,20.40
2018-02-22T22:35:27.402Z,13.97
2018-02-22T22:37:55.978Z,23.80
2018-02-22T22:40:23.550Z,17.90
2018-02-22T22:42:51.124Z,27.57
2018-02-22T22:45:19.490Z,19.47
2018-02-22T22:47:47.174Z,14.83
2018-02-22T22:50:15.450Z,21.43
2018-02-22T22:52:43.761Z,19.10
2018-02-22T22:55:11.304Z,18.70
2018-02-22T22:57:39.673Z,18.93
2018-02-22T23:00:07.942Z,20.27
2018-02-22T23:02:36.230Z,17.63
2018-02-22T23:05:03.735Z,14.57
2018-02-22T23:07:31.244Z,22.33
2018-02-22T23:09:59.518Z,19.73
2018-02-22T23:12:27.806Z,17.57
2018-02-22T23:14:55.394Z,18.90
2018-02-22T23:19:11.392Z,20.17
2018-02-22T23:21:38.951Z,23.87
2018-02-22T23:24:06.485Z,21.30
2018-02-22T23:26:34.006Z,17.50
2018-02-22T23:29:01.530Z,14.47
2018-02-22T23:31:29.266Z,15.73
2018-02-22T23:33:57.630Z,15.43
2018-02-22T23:36:25.952Z,14.40
2018-02-22T23:38:53.521Z,14.70
2018-02-22T23:41:21.534Z,19.00
2018-02-22T23:43:49.828Z,16.00
2018-02-22T23:46:18.112Z,14.40
2018-02-22T23:48:46.423Z,16.93
2018-02-22T23:51:13.949Z,12.80
2018-02-22T23:53:41.477Z,12.50
2018-02-22T23:56:09.770Z,12.70
2018-02-22T23:58:38.050Z,14.30
